Time;durP1;ratioP1;P1;durP2;ratioP2;P2;SDS_P1;SDS_P2;PMS_P1;PMS_P2;Temp;Humidity;BMP_temperature;BMP_pressure;BME280_temperature;BME280_humidity;BME280_pressure;Samples;Min_cycle;Max_cycle;Signal;HPM_P1;HPM_P2
2021/08/14 00:00:18;;;;;;;;;3.50;3.50;;;;;24.82;37.88;101781.94;5081319;28;45380;-46
2021/08/14 00:02:43;;;;;;;;;7.00;4.00;;;;;24.77;37.93;101784.88;5081136;27;45418;-47
2021/08/14 00:05:09;;;;;;;;;8.00;7.00;;;;;24.73;37.83;101780.66;5081339;27;45430;-49
2021/08/14 00:07:34;;;;;;;;;5.50;4.00;;;;;24.70;38.05;101777.28;5081044;28;45599;-44
2021/08/14 00:10:00;;;;;;;;;5.25;5.00;;;;;24.65;37.64;101782.91;5080782;28;46158;-45
2021/08/14 00:12:25;;;;;;;;;8.75;6.50;;;;;24.63;37.96;101782.97;5080916;27;45281;-46
2021/08/14 00:14:50;;;;;;;;;6.00;4.00;;;;;24.60;38.33;101782.28;5081327;27;45221;-44
2021/08/14 00:17:16;;;;;;;;;7.75;5.50;;;;;24.55;38.38;101777.16;5062746;28;45528;-47
2021/08/14 00:19:41;;;;;;;;;7.00;4.50;;;;;24.53;38.06;101773.72;5065758;27;46227;-49
2021/08/14 00:22:07;;;;;;;;;4.25;3.50;;;;;24.50;38.29;101780.13;5080795;27;45318;-48
2021/08/14 00:24:32;;;;;;;;;6.00;5.00;;;;;24.47;38.03;101774.91;5080696;27;45426;-47
2021/08/14 00:26:57;;;;;;;;;6.00;3.50;;;;;24.43;38.13;101778.72;5074589;27;45239;-49
2021/08/14 00:29:23;;;;;;;;;5.00;4.00;;;;;24.38;38.16;101771.88;5080694;28;45267;-47
2021/08/14 00:31:48;;;;;;;;;3.00;3.00;;;;;24.34;38.25;101773.88;5080888;28;45303;-46
2021/08/14 00:34:14;;;;;;;;;3.75;3.75;;;;;24.27;38.37;101765.28;5080752;27;45626;-45
2021/08/14 00:36:39;;;;;;;;;4.00;4.00;;;;;24.21;38.40;101759.41;5080811;27;45580;-44
2021/08/14 00:39:04;;;;;;;;;5.25;4.25;;;;;24.19;38.32;101767.56;5080390;27;46193;-47
2021/08/14 00:41:31;;;;;;;;;6.50;4.00;;;;;24.14;38.29;101765.13;5080630;27;45359;-46
2021/08/14 00:44:01;;;;;;;;;3.00;3.00;;;;;24.11;38.45;101759.94;5080511;28;45404;-44
2021/08/14 00:46:28;;;;;;;;;6.25;5.25;;;;;24.07;37.88;101765.53;5079243;28;45298;-44
2021/08/14 00:48:55;;;;;;;;;3.75;3.75;;;;;24.01;38.61;101769.41;5059086;28;47222;-45
2021/08/14 00:51:20;;;;;;;;;7.00;4.00;;;;;23.97;38.41;101775.91;5073095;28;45342;-45
2021/08/14 00:53:45;;;;;;;;;3.75;3.75;;;;;23.92;38.52;101767.25;5080563;27;45784;-44
2021/08/14 00:56:11;;;;;;;;;5.25;4.75;;;;;23.89;38.42;101773.63;5080453;27;45276;-48
2021/08/14 00:58:37;;;;;;;;;4.75;4.00;;;;;23.84;38.36;101776.53;5080389;27;45406;-47
2021/08/14 01:01:04;;;;;;;;;4.75;4.00;;;;;23.83;38.52;101779.31;5080389;28;45438;-43
2021/08/14 01:03:29;;;;;;;;;6.25;5.25;;;;;23.79;38.53;101773.25;5080442;28;45361;-45
2021/08/14 01:05:56;;;;;;;;;6.75;5.75;;;;;23.77;38.54;101779.66;5080254;27;45472;-45
2021/08/14 01:08:21;;;;;;;;;3.00;3.00;;;;;23.72;38.89;101777.19;5096063;27;47368;-44
2021/08/14 01:10:47;;;;;;;;;4.50;3.00;;;;;23.70;38.66;101774.59;5080021;27;45281;-44
2021/08/14 01:13:13;;;;;;;;;4.00;3.00;;;;;23.68;38.54;101771.16;5080357;27;45319;-45
2021/08/14 01:15:50;;;;;;;;;6.00;4.75;;;;;23.64;38.56;101771.38;5078908;27;45200;-45
2021/08/14 01:18:18;;;;;;;;;5.50;3.75;;;;;23.63;38.67;101775.00;5072370;27;46092;-47
2021/08/14 01:20:44;;;;;;;;;6.75;3.75;;;;;23.60;38.66;101778.72;5074131;28;45280;-47
2021/08/14 01:23:11;;;;;;;;;5.25;4.00;;;;;23.58;38.97;101769.88;5080008;28;45419;-46
2021/08/14 01:25:36;;;;;;;;;4.00;4.00;;;;;23.56;38.70;101766.44;5072961;27;45217;-48
2021/08/14 01:28:02;;;;;;;;;4.00;3.75;;;;;23.55;38.65;101767.38;5079818;27;45243;-46
2021/08/14 01:30:28;;;;;;;;;4.25;4.00;;;;;23.53;38.77;101763.91;5079940;28;45319;-45
2021/08/14 01:32:54;;;;;;;;;4.25;3.75;;;;;23.50;38.66;101770.28;5080135;27;45419;-45
2021/08/14 01:35:19;;;;;;;;;6.00;3.75;;;;;23.50;38.78;101761.41;5080053;27;45252;-46
2021/08/14 01:37:45;;;;;;;;;6.00;4.00;;;;;23.48;39.07;101757.91;5079837;28;45224;-47
2021/08/14 01:40:10;;;;;;;;;7.00;6.00;;;;;23.47;38.80;101758.84;5081520;27;45212;-46
2021/08/14 01:42:36;;;;;;;;;3.25;3.00;;;;;23.47;38.87;101758.84;5082176;28;45386;-46
2021/08/14 01:45:01;;;;;;;;;5.00;4.00;;;;;23.45;39.09;101752.72;5083396;27;45445;-46
2021/08/14 01:47:26;;;;;;;;;7.50;4.75;;;;;23.41;38.83;101748.44;5082052;28;46228;-46
2021/08/14 01:49:52;;;;;;;;;4.25;4.00;;;;;23.41;38.98;101752.00;5083226;27;45394;-47
2021/08/14 01:52:18;;;;;;;;;6.50;3.00;;;;;23.39;38.85;101745.00;5083420;28;45824;-46
2021/08/14 01:54:46;;;;;;;;;6.50;4.25;;;;;23.36;38.99;101744.19;5083029;27;45534;-48
2021/08/14 01:57:13;;;;;;;;;4.25;4.00;;;;;23.36;38.98;101748.72;5083121;27;45647;-45
2021/08/14 01:59:39;;;;;;;;;6.50;6.00;;;;;23.36;38.82;101749.56;5083109;28;45267;-44
2021/08/14 02:02:05;;;;;;;;;6.25;3.50;;;;;23.31;39.05;101751.63;5083157;27;45280;-45
2021/08/14 02:04:30;;;;;;;;;6.75;5.25;;;;;23.30;39.16;101760.59;5083017;27;45557;-46
2021/08/14 02:06:56;;;;;;;;;6.00;5.00;;;;;23.26;39.02;101751.00;5083292;28;45327;-44
2021/08/14 02:09:22;;;;;;;;;3.00;3.00;;;;;23.22;39.12;101749.44;5082827;27;45312;-46
2021/08/14 02:11:47;;;;;;;;;6.50;3.50;;;;;23.20;39.24;101754.00;5082898;27;45243;-45
2021/08/14 02:14:13;;;;;;;;;3.25;2.00;;;;;23.19;39.10;101754.94;5083038;27;45595;-48
2021/08/14 02:16:39;;;;;;;;;5.00;4.50;;;;;23.13;39.30;101741.81;5082999;27;45319;-46
2021/08/14 02:19:05;;;;;;;;;3.25;3.25;;;;;23.13;39.07;101747.16;5069202;27;45324;-45
2021/08/14 02:21:31;;;;;;;;;5.00;4.00;;;;;23.10;38.91;101737.47;5082839;27;45331;-44
2021/08/14 02:23:57;;;;;;;;;5.25;3.25;;;;;23.09;39.19;101745.59;5082505;27;45621;-45
2021/08/14 02:26:23;;;;;;;;;4.50;3.75;;;;;23.05;39.17;101737.69;5077003;27;46070;-45
2021/08/14 02:28:48;;;;;;;;;5.50;5.25;;;;;23.04;39.22;101744.03;5082468;28;45247;-44
2021/08/14 02:31:14;;;;;;;;;4.25;4.00;;;;;23.01;38.99;101740.66;5082937;27;45241;-45
2021/08/14 02:33:40;;;;;;;;;4.00;4.00;;;;;23.01;39.24;101737.97;5082575;28;45514;-45
2021/08/14 02:36:06;;;;;;;;;4.25;4.25;;;;;22.97;39.81;101739.06;5082697;28;45398;-47
2021/08/14 02:38:33;;;;;;;;;4.75;3.50;;;;;22.94;39.07;101734.69;5082603;27;45328;-46
2021/08/14 02:41:00;;;;;;;;;5.00;4.00;;;;;22.93;38.91;101741.03;5082526;27;45460;-46
2021/08/14 02:43:25;;;;;;;;;4.50;4.50;;;;;22.90;39.48;101733.13;5082335;27;45500;-45
2021/08/14 02:45:50;;;;;;;;;6.00;3.75;;;;;22.88;39.40;101729.69;5082612;27;46161;-45
2021/08/14 02:48:16;;;;;;;;;4.25;3.00;;;;;22.86;39.15;101729.75;5082439;27;45224;-46
2021/08/14 02:50:42;;;;;;;;;4.00;3.75;;;;;22.84;39.36;101722.72;5081072;28;45302;-44
2021/08/14 02:53:07;;;;;;;;;4.25;3.25;;;;;22.83;39.24;101724.56;5082362;28;45467;-46
2021/08/14 02:55:32;;;;;;;;;5.00;5.00;;;;;22.82;39.10;101719.28;5082007;27;45379;-46
2021/08/14 02:57:58;;;;;;;;;4.00;4.00;;;;;22.78;39.32;101718.56;5080891;28;45409;-44
2021/08/14 03:00:23;;;;;;;;;5.00;3.25;;;;;22.76;39.50;101722.25;5082349;27;45169;-45
2021/08/14 03:02:48;;;;;;;;;2.50;2.50;;;;;22.75;39.47;101720.53;5082283;27;45228;-48
2021/08/14 03:05:14;;;;;;;;;5.25;4.25;;;;;22.69;39.24;101719.88;5082188;27;46048;-46
2021/08/14 03:07:39;;;;;;;;;3.75;3.75;;;;;22.69;39.32;101714.53;5082184;27;45155;-49
2021/08/14 03:10:05;;;;;;;;;7.00;4.50;;;;;22.66;39.34;101706.63;5082026;27;45224;-46
2021/08/14 03:12:30;;;;;;;;;5.25;3.25;;;;;22.66;39.63;101711.13;5082084;27;45376;-47
2021/08/14 03:14:56;;;;;;;;;6.75;5.75;;;;;22.63;39.61;101714.84;5082010;27;45401;-46
2021/08/14 03:17:21;;;;;;;;;3.00;3.00;;;;;22.61;39.44;101697.97;5082000;27;45402;-45
2021/08/14 03:19:46;;;;;;;;;4.75;4.75;;;;;22.56;39.76;101700.88;5068543;28;45374;-44
2021/08/14 03:22:12;;;;;;;;;2.75;2.00;;;;;22.58;39.49;101700.81;5081713;27;45367;-44
2021/08/14 03:24:39;;;;;;;;;7.00;5.00;;;;;22.57;39.78;101701.75;5081972;27;46897;-47
2021/08/14 03:27:06;;;;;;;;;4.00;3.25;;;;;22.55;39.32;101701.81;5075330;27;45354;-46
2021/08/14 03:29:32;;;;;;;;;4.25;3.50;;;;;22.54;39.58;101700.09;5081938;27;45248;-44
2021/08/14 03:31:58;;;;;;;;;5.00;5.00;;;;;22.49;39.76;101694.09;5081646;27;45285;-48
2021/08/14 03:34:23;;;;;;;;;3.50;3.00;;;;;22.50;39.54;101703.88;5089139;27;47417;-48
2021/08/14 03:36:49;;;;;;;;;3.50;3.50;;;;;22.49;39.76;101699.44;5081725;28;45244;-48
2021/08/14 03:39:14;;;;;;;;;4.00;3.00;;;;;22.48;39.49;101697.72;5097450;27;45287;-48
2021/08/14 03:41:39;;;;;;;;;7.00;5.00;;;;;22.47;39.48;101697.78;5081591;27;45367;-48
2021/08/14 03:44:05;;;;;;;;;8.25;5.75;;;;;22.43;39.99;101690.81;5081437;27;45945;-48
2021/08/14 03:46:31;;;;;;;;;6.50;5.00;;;;;22.43;39.97;101701.53;5081641;27;45506;-49
2021/08/14 03:48:56;;;;;;;;;7.25;4.75;;;;;22.39;39.71;101691.00;5114753;27;45305;-47
2021/08/14 03:51:22;;;;;;;;;5.25;4.50;;;;;22.39;40.17;101692.81;5081373;28;45546;-44
2021/08/14 03:53:47;;;;;;;;;9.25;6.00;;;;;22.37;40.09;101698.22;5081123;27;47140;-46
2021/08/14 03:56:13;;;;;;;;;4.75;4.75;;;;;22.35;40.04;101692.06;5081317;27;45322;-45
2021/08/14 03:58:38;;;;;;;;;4.50;3.25;;;;;22.34;40.01;101694.78;5081473;28;45463;-45
2021/08/14 04:01:03;;;;;;;;;8.00;5.00;;;;;22.33;39.89;101691.25;5081126;27;45598;-48
2021/08/14 04:03:30;;;;;;;;;6.50;2.50;;;;;22.32;39.94;101688.66;5080493;28;46330;-44
2021/08/14 04:05:56;;;;;;;;;4.00;4.00;;;;;22.29;40.07;101689.69;5079770;28;45377;-44
2021/08/14 04:08:21;;;;;;;;;5.25;4.50;;;;;22.27;40.04;101688.88;5081223;27;45166;-48
2021/08/14 04:10:46;;;;;;;;;4.50;4.00;;;;;22.26;39.89;101687.13;5080762;27;45152;-46
2021/08/14 04:13:12;;;;;;;;;7.25;3.00;;;;;22.23;40.40;101679.28;5080952;27;46246;-45
2021/08/14 04:15:37;;;;;;;;;8.25;5.75;;;;;22.22;40.52;101683.75;5081000;27;45324;-47
2021/08/14 04:18:03;;;;;;;;;4.00;2.75;;;;;22.19;40.08;101678.56;5075473;28;45747;-47
2021/08/14 04:20:28;;;;;;;;;5.00;5.00;;;;;22.18;40.09;101676.81;5073298;27;45239;-47
2021/08/14 04:22:54;;;;;;;;;5.25;4.00;;;;;22.15;40.48;101666.25;5079320;28;48272;-47
2021/08/14 04:25:19;;;;;;;;;3.00;3.00;;;;;22.15;40.49;101670.72;5075934;27;45271;-47
2021/08/14 04:27:44;;;;;;;;;4.00;4.00;;;;;22.14;40.13;101672.56;5078568;28;45300;-45
2021/08/14 04:30:10;;;;;;;;;4.00;3.00;;;;;22.13;40.25;101664.59;5080994;27;45224;-48
2021/08/14 04:32:36;;;;;;;;;6.75;5.00;;;;;22.11;40.17;101671.81;5080556;28;45401;-48
2021/08/14 04:35:10;;;;;;;;;4.25;4.25;;;;;22.10;40.09;101675.44;5080770;27;45398;-45
2021/08/14 04:37:36;;;;;;;;;4.25;3.75;;;;;22.07;40.43;101676.47;5067932;28;45287;-49
2021/08/14 04:40:03;;;;;;;;;4.50;3.00;;;;;22.06;40.59;101664.91;5079001;28;45491;-47
2021/08/14 04:42:29;;;;;;;;;4.75;4.00;;;;;22.06;40.47;101666.69;5080319;28;46172;-47
2021/08/14 04:44:54;;;;;;;;;7.00;5.00;;;;;22.03;40.48;101664.19;5080474;27;45332;-47
2021/08/14 04:47:20;;;;;;;;;8.25;6.00;;;;;22.01;40.50;101666.03;5080744;28;45272;-49
2021/08/14 04:49:45;;;;;;;;;4.00;4.00;;;;;21.98;40.58;101663.53;5080486;27;45459;-48
2021/08/14 04:52:11;;;;;;;;;6.75;5.50;;;;;21.98;40.36;101655.50;5079134;28;46927;-47
2021/08/14 04:54:36;;;;;;;;;8.25;6.00;;;;;21.96;40.62;101658.25;5080265;28;45251;-46
2021/08/14 04:57:02;;;;;;;;;5.75;4.00;;;;;21.95;40.53;101663.66;5096301;27;45253;-47
2021/08/14 04:59:27;;;;;;;;;4.00;4.00;;;;;21.94;40.39;101660.13;5080375;28;45402;-47
2021/08/14 05:01:53;;;;;;;;;9.50;5.25;;;;;21.92;40.69;101659.31;5080245;27;46122;-46
2021/08/14 05:04:18;;;;;;;;;5.50;4.00;;;;;21.91;40.82;101658.47;5080432;28;45232;-46
2021/08/14 05:06:44;;;;;;;;;3.75;3.75;;;;;21.90;40.83;101656.72;5073283;28;45295;-46
2021/08/14 05:09:09;;;;;;;;;5.25;4.50;;;;;21.89;40.52;101659.47;5073670;28;45215;-45
2021/08/14 05:11:34;;;;;;;;;7.00;5.50;;;;;21.87;40.54;101669.38;5079051;28;47064;-47
2021/08/14 05:14:00;;;;;;;;;5.00;2.75;;;;;21.86;40.64;101667.63;5079929;27;45287;-46
2021/08/14 05:16:25;;;;;;;;;4.00;4.00;;;;;21.85;40.45;101669.47;5080368;27;45357;-44
2021/08/14 05:18:51;;;;;;;;;5.75;3.25;;;;;21.85;40.94;101660.59;5067731;27;45154;-44
2021/08/14 05:21:17;;;;;;;;;4.75;4.75;;;;;21.83;40.92;101663.31;5078625;28;45421;-48
2021/08/14 05:23:42;;;;;;;;;23.25;21.50;;;;;21.84;41.18;101673.06;5079893;28;45365;-46
2021/08/14 05:26:08;;;;;;;;;4.25;4.00;;;;;21.81;40.64;101667.88;5073201;27;45635;-46
2021/08/14 05:28:33;;;;;;;;;5.75;5.00;;;;;21.83;41.30;101665.97;5080038;28;45276;-45
2021/08/14 05:30:59;;;;;;;;;4.75;3.00;;;;;21.83;41.11;101670.47;5079699;28;46240;-46
2021/08/14 05:33:24;;;;;;;;;4.50;4.00;;;;;21.81;41.33;101678.56;5080201;28;45334;-45
2021/08/14 05:35:49;;;;;;;;;6.25;4.75;;;;;21.81;40.76;101673.22;5080054;27;46548;-46
2021/08/14 05:38:15;;;;;;;;;6.00;3.25;;;;;21.81;41.24;101670.56;5080011;27;45285;-43
2021/08/14 05:40:40;;;;;;;;;4.75;4.75;;;;;21.80;41.11;101670.59;5079431;27;45291;-46
2021/08/14 05:43:07;;;;;;;;;7.25;6.00;;;;;21.81;41.42;101667.88;5078427;28;45279;-47
2021/08/14 05:45:32;;;;;;;;;6.00;5.00;;;;;21.81;41.29;101667.00;5079922;27;45431;-48
2021/08/14 05:48:01;;;;;;;;;6.75;5.00;;;;;21.80;41.18;101670.59;5079693;27;45549;-48
2021/08/14 05:50:26;;;;;;;;;4.25;4.00;;;;;21.83;41.21;101670.47;5066000;28;45384;-45
2021/08/14 05:52:52;;;;;;;;;7.25;4.25;;;;;21.83;40.82;101674.00;5079641;28;46565;-46
2021/08/14 05:55:17;;;;;;;;;5.00;5.00;;;;;21.85;41.45;101680.16;5079603;27;45429;-44
2021/08/14 05:57:42;;;;;;;;;4.25;4.00;;;;;21.86;41.00;101683.69;5079730;27;45346;-47
2021/08/14 06:00:09;;;;;;;;;6.00;4.25;;;;;21.86;41.54;101683.69;5078144;28;47287;-46
2021/08/14 06:02:34;;;;;;;;;6.00;4.75;;;;;21.87;41.19;101685.44;5079583;27;45395;-47
2021/08/14 06:05:00;;;;;;;;;5.00;5.00;;;;;21.83;40.88;101678.50;5079948;27;45430;-45
2021/08/14 06:07:25;;;;;;;;;8.75;6.75;;;;;21.87;41.61;101688.09;5079511;27;45374;-45
2021/08/14 06:09:50;;;;;;;;;5.25;4.00;;;;;21.88;41.31;101689.84;5079097;27;46032;-52
2021/08/14 06:12:16;;;;;;;;;4.75;4.00;;;;;21.88;41.66;101696.06;5077911;28;49274;-53
2021/08/14 06:14:41;;;;;;;;;3.50;3.00;;;;;21.90;41.14;101701.34;5079540;27;45397;-55
2021/08/14 06:17:07;;;;;;;;;5.00;5.00;;;;;21.92;41.55;101702.13;5079418;28;45241;-54
2021/08/14 06:19:32;;;;;;;;;4.75;4.50;;;;;21.93;41.45;101701.19;5065570;27;46314;-53
2021/08/14 06:21:57;;;;;;;;;6.75;4.25;;;;;21.92;41.62;101692.31;5079138;27;45495;-54
2021/08/14 06:24:23;;;;;;;;;7.00;7.00;;;;;21.98;41.39;101698.31;5079154;27;45239;-53
2021/08/14 06:26:48;;;;;;;;;5.50;3.25;;;;;22.00;41.28;101697.31;5091852;27;49536;-53
2021/08/14 06:29:13;;;;;;;;;63.00;49.00;;;;;21.98;41.67;101693.81;5082444;27;45956;-54
2021/08/14 06:31:39;;;;;;;;;7.25;5.00;;;;;22.05;41.18;101697.94;5082770;28;45238;-52
2021/08/14 06:34:04;;;;;;;;;4.25;3.00;;;;;22.06;41.32;101694.34;5082680;27;45429;-53
2021/08/14 06:36:29;;;;;;;;;6.00;5.00;;;;;22.10;41.23;101696.84;5082710;27;45344;-50
2021/08/14 06:38:56;;;;;;;;;8.75;4.75;;;;;22.12;41.15;101703.88;5066992;28;46088;-58
2021/08/14 06:41:21;;;;;;;;;6.00;5.00;;;;;22.15;41.77;101695.72;5082646;27;45297;-57
2021/08/14 06:43:47;;;;;;;;;6.50;4.25;;;;;22.20;41.72;101700.81;5115255;27;45283;-58
2021/08/14 06:46:12;;;;;;;;;7.00;5.50;;;;;22.23;41.51;101708.72;5082535;27;45530;-58
2021/08/14 06:48:37;;;;;;;;;6.75;4.50;;;;;22.24;41.34;101705.97;5082353;27;45333;-57
2021/08/14 06:51:03;;;;;;;;;4.50;4.00;;;;;22.29;41.18;101703.06;5082204;27;45244;-52
2021/08/14 06:53:29;;;;;;;;;5.75;3.50;;;;;22.32;41.23;101697.56;5082190;28;45334;-55
2021/08/14 06:55:54;;;;;;;;;7.00;4.00;;;;;22.35;41.19;101694.75;5082336;27;45398;-56
2021/08/14 06:58:19;;;;;;;;;7.25;5.50;;;;;22.39;41.07;101698.19;5081650;27;48582;-50
2021/08/14 07:00:45;;;;;;;;;4.75;4.75;;;;;22.39;41.90;101696.34;5072338;27;45494;-49
2021/08/14 07:03:10;;;;;;;;;5.50;4.50;;;;;22.45;41.81;101699.66;5080429;28;45432;-48
2021/08/14 07:05:40;;;;;;;;;6.00;6.00;;;;;22.48;41.54;101700.38;5080443;27;45508;-51
2021/08/14 07:08:06;;;;;;;;;7.00;5.50;;;;;22.52;41.54;101703.78;5080525;27;45353;-50
2021/08/14 07:10:32;;;;;;;;;5.00;4.00;;;;;22.55;41.15;101703.63;5081313;27;45401;-51
2021/08/14 07:12:57;;;;;;;;;5.50;5.25;;;;;22.59;41.45;101698.97;5081675;27;45402;-49
2021/08/14 07:15:23;;;;;;;;;5.25;5.00;;;;;22.62;41.35;101696.16;5081881;27;45453;-52
2021/08/14 07:17:49;;;;;;;;;4.50;3.50;;;;;22.67;41.49;101697.66;5082174;27;45525;-52
2021/08/14 07:20:14;;;;;;;;;5.00;4.50;;;;;22.71;41.84;101696.53;5081639;27;45324;-49
2021/08/14 07:22:40;;;;;;;;;5.75;5.75;;;;;22.75;41.46;101697.25;5081396;28;45351;-49
2021/08/14 07:25:06;;;;;;;;;6.75;4.50;;;;;22.80;41.35;101699.72;5081356;28;45413;-50
2021/08/14 07:27:31;;;;;;;;;7.25;5.50;;;;;22.83;41.55;101699.56;5081444;27;45418;-49
2021/08/14 07:29:56;;;;;;;;;6.75;4.00;;;;;22.86;41.27;101691.38;5081546;27;45227;-47
2021/08/14 07:32:22;;;;;;;;;4.75;4.50;;;;;22.91;41.58;101693.81;5080437;28;45550;-49
2021/08/14 07:34:47;;;;;;;;;8.50;5.00;;;;;22.94;41.14;101690.97;5078259;27;45480;-49
2021/08/14 07:37:12;;;;;;;;;6.75;4.25;;;;;22.98;41.36;101687.19;5080147;28;45252;-48
2021/08/14 07:39:38;;;;;;;;;5.25;4.50;;;;;23.01;41.41;101685.22;5081479;27;45291;-49
2021/08/14 07:42:03;;;;;;;;;6.50;5.00;;;;;23.04;41.46;101684.19;5081234;27;45211;-51
2021/08/14 07:44:29;;;;;;;;;7.75;5.75;;;;;23.08;41.11;101690.25;5081695;27;45306;-50
2021/08/14 07:46:54;;;;;;;;;6.75;5.00;;;;;23.12;40.90;101683.78;5080825;28;46122;-47
2021/08/14 07:49:19;;;;;;;;;7.75;5.00;;;;;23.14;41.34;101682.75;5079443;27;45252;-52
2021/08/14 07:51:45;;;;;;;;;8.25;5.75;;;;;23.19;41.25;101680.75;5080607;27;45414;-52
2021/08/14 07:54:10;;;;;;;;;6.00;5.00;;;;;23.24;41.58;101682.31;5080562;27;45452;-50
2021/08/14 07:56:35;;;;;;;;;7.00;5.25;;;;;23.27;41.21;101677.66;5079109;28;47091;-51
2021/08/14 07:59:00;;;;;;;;;6.25;4.00;;;;;23.30;41.02;101677.50;5080685;27;45398;-50
2021/08/14 08:01:26;;;;;;;;;6.50;5.25;;;;;23.36;41.12;101681.69;5061712;28;45365;-48
2021/08/14 08:03:51;;;;;;;;;4.00;4.00;;;;;23.40;41.06;101679.69;5081441;27;45360;-51
2021/08/14 08:06:17;;;;;;;;;6.25;5.25;;;;;23.43;40.95;101677.69;5081133;28;45318;-52
2021/08/14 08:08:42;;;;;;;;;5.50;4.00;;;;;23.48;41.29;101678.34;5080760;27;46928;-50
2021/08/14 08:11:07;;;;;;;;;9.50;5.25;;;;;23.53;41.06;101678.06;5081281;28;45427;-53
2021/08/14 08:13:32;;;;;;;;;7.00;4.00;;;;;23.58;41.17;101669.78;5081038;27;45406;-52
2021/08/14 08:15:58;;;;;;;;;5.00;4.25;;;;;23.63;41.11;101673.94;5080953;28;45299;-47
2021/08/14 08:18:23;;;;;;;;;8.25;6.75;;;;;23.66;41.08;101668.41;5081019;27;45303;-48
2021/08/14 08:20:49;;;;;;;;;11.25;9.00;;;;;23.72;41.16;101669.03;5113972;27;45330;-51
2021/08/14 08:23:16;;;;;;;;;5.00;4.25;;;;;23.77;41.12;101675.00;5080806;28;45293;-52
2021/08/14 08:25:42;;;;;;;;;7.50;6.25;;;;;23.83;40.83;101675.50;5080431;27;46090;-53
2021/08/14 08:28:07;;;;;;;;;11.75;8.75;;;;;23.88;41.15;101672.56;5079552;28;45217;-52
2021/08/14 08:30:32;;;;;;;;;10.00;8.00;;;;;23.92;40.94;101668.78;5079600;28;45544;-48
2021/08/14 08:32:58;;;;;;;;;4.75;3.00;;;;;24.00;40.93;101668.38;5080770;28;45160;-52
2021/08/14 08:35:24;;;;;;;;;6.50;6.50;;;;;24.03;40.81;101665.53;5080529;28;46179;-47
2021/08/14 08:37:49;;;;;;;;;8.75;8.00;;;;;24.10;40.78;101666.03;5080760;28;45240;-57
2021/08/14 08:40:17;;;;;;;;;10.50;8.50;;;;;24.15;40.73;101658.56;5080383;27;45176;-50
2021/08/14 08:42:45;;;;;;;;;7.00;7.00;;;;;24.17;40.71;101656.69;5096394;27;45564;-49
2021/08/14 08:45:11;;;;;;;;;6.75;5.00;;;;;24.23;40.98;101660.84;5080507;27;45329;-49
2021/08/14 08:47:43;;;;;;;;;6.00;4.25;;;;;24.31;40.71;101655.88;5080511;27;45371;-56
2021/08/14 08:50:10;;;;;;;;;6.75;6.00;;;;;24.37;40.50;101668.09;5080171;27;45325;-50
2021/08/14 08:52:37;;;;;;;;;6.75;5.50;;;;;24.42;40.44;101660.63;5080568;27;45473;-49
2021/08/14 08:55:03;;;;;;;;;8.75;8.25;;;;;24.46;40.19;101663.03;5079941;27;46399;-47
2021/08/14 08:57:29;;;;;;;;;7.50;5.00;;;;;24.52;40.23;101658.28;5080188;28;45268;-52
2021/08/14 08:59:54;;;;;;;;;7.50;5.25;;;;;24.57;40.23;101650.81;5077593;27;45453;-51
2021/08/14 09:02:32;;;;;;;;;5.25;5.25;;;;;24.63;40.35;101656.69;5069637;28;45471;-51
2021/08/14 09:05:20;;;;;;;;;9.50;5.25;;;;;24.70;40.07;101653.66;5080100;28;45407;-52
2021/08/14 09:07:47;;;;;;;;;6.00;4.50;;;;;24.76;39.66;101647.94;5080713;27;45331;-52
2021/08/14 09:10:25;;;;;;;;;7.50;5.00;;;;;24.81;39.97;101645.81;5080243;28;45240;-47
2021/08/14 09:12:51;;;;;;;;;7.00;6.00;;;;;24.87;39.68;101650.84;5079879;27;45264;-48
2021/08/14 09:15:28;;;;;;;;;4.25;4.25;;;;;24.94;39.78;101645.94;5079432;27;46068;-49
2021/08/14 09:18:03;;;;;;;;;4.50;4.50;;;;;25.00;39.71;101637.50;5079746;27;45364;-55
2021/08/14 09:20:29;;;;;;;;;7.00;6.00;;;;;25.04;39.41;101646.25;5080086;28;45291;-55
2021/08/14 09:23:05;;;;;;;;;6.50;6.50;;;;;25.13;39.39;101651.03;5079781;27;45355;-53
2021/08/14 09:25:40;;;;;;;;;5.00;5.00;;;;;25.19;39.79;101650.66;5079515;27;46156;-55
2021/08/14 09:28:07;;;;;;;;;7.50;6.50;;;;;25.26;39.69;101641.28;5079999;28;45330;-58
2021/08/14 09:30:45;;;;;;;;;8.00;6.75;;;;;25.35;39.80;101647.06;5080109;28;45218;-57
2021/08/14 09:33:13;;;;;;;;;5.50;5.50;;;;;25.41;39.75;101650.25;5079956;27;45468;-56
2021/08/14 09:35:39;;;;;;;;;7.75;7.25;;;;;25.48;39.27;101645.31;5079707;27;46307;-48
2021/08/14 09:38:08;;;;;;;;;6.50;6.00;;;;;25.54;39.68;101638.72;5080105;28;45343;-48
2021/08/14 09:40:35;;;;;;;;;7.75;6.00;;;;;25.64;39.56;101646.06;5079623;27;45359;-48
2021/08/14 09:43:01;;;;;;;;;8.50;6.00;;;;;25.73;39.03;101638.38;5079772;28;45493;-47
2021/08/14 09:45:27;;;;;;;;;5.50;5.00;;;;;25.80;38.97;101635.19;5079658;27;46321;-50
2021/08/14 09:47:53;;;;;;;;;9.25;8.25;;;;;25.89;38.75;101631.03;5080006;27;45331;-50
2021/08/14 09:50:18;;;;;;;;;10.50;7.50;;;;;25.98;38.71;101626.03;5079816;28;45287;-48
2021/08/14 09:52:47;;;;;;;;;8.50;6.50;;;;;26.07;39.54;101628.16;5079718;28;45473;-47
2021/08/14 09:55:23;;;;;;;;;8.00;6.50;;;;;26.17;39.23;101626.56;5079391;27;46289;-47
2021/08/14 09:58:01;;;;;;;;;5.75;5.75;;;;;26.27;38.89;101627.66;5079605;27;45230;-46
2021/08/14 10:00:29;;;;;;;;;5.25;5.25;;;;;26.35;38.39;101631.69;5061158;28;45402;-47
2021/08/14 10:02:59;;;;;;;;;6.00;6.00;;;;;26.43;38.12;101626.66;5077099;28;45449;-47
2021/08/14 10:05:25;;;;;;;;;9.75;8.25;;;;;26.53;38.70;101625.06;5083149;27;46707;-47
2021/08/14 10:07:51;;;;;;;;;8.00;6.50;;;;;26.65;38.02;101625.19;5083544;27;46633;-49
2021/08/14 10:10:16;;;;;;;;;9.50;6.00;;;;;26.73;38.28;101612.94;5083385;27;45469;-46
2021/08/14 10:12:43;;;;;;;;;12.00;8.00;;;;;26.87;37.99;101620.06;5082707;28;45417;-47
2021/08/14 10:15:09;;;;;;;;;5.75;5.75;;;;;27.01;37.59;101619.09;5083101;27;47245;-47
2021/08/14 10:17:35;;;;;;;;;8.00;6.25;;;;;27.16;37.53;101617.16;5098741;27;45397;-46
2021/08/14 10:20:01;;;;;;;;;9.50;7.75;;;;;27.32;37.44;101616.06;5082971;28;45260;-48
2021/08/14 10:22:27;;;;;;;;;5.50;5.50;;;;;27.48;37.50;101616.72;5082693;27;45468;-50
2021/08/14 10:24:54;;;;;;;;;9.25;6.25;;;;;27.66;37.30;101606.44;5082472;27;46881;-46
2021/08/14 10:27:22;;;;;;;;;8.25;6.75;;;;;27.86;37.41;101612.19;5082404;28;45227;-48
2021/08/14 10:29:52;;;;;;;;;9.25;7.50;;;;;28.07;37.89;101606.19;5082724;27;45337;-49
2021/08/14 10:32:30;;;;;;;;;9.50;9.50;;;;;28.34;37.60;101605.94;5082473;28;45552;-49
2021/08/14 10:35:14;;;;;;;;;9.50;8.50;;;;;28.69;37.94;101603.25;5074073;28;45271;-47
2021/08/14 10:37:44;;;;;;;;;5.50;5.50;;;;;29.07;37.89;101594.94;5069897;28;45275;-49
2021/08/14 10:40:10;;;;;;;;;10.00;6.50;;;;;29.48;37.94;101598.91;5082402;27;45399;-45
2021/08/14 10:42:54;;;;;;;;;9.75;9.50;;;;;29.99;37.79;101597.47;5081143;28;45533;-48
2021/08/14 10:45:30;;;;;;;;;11.25;7.75;;;;;30.47;37.66;101597.00;5082172;28;46176;-46
2021/08/14 10:47:56;;;;;;;;;6.25;6.00;;;;;31.00;37.16;101578.94;5082422;27;45467;-47
2021/08/14 10:50:34;;;;;;;;;6.50;5.25;;;;;31.57;37.47;101583.88;5082203;27;45254;-49
2021/08/14 10:53:11;;;;;;;;;6.00;4.50;;;;;32.17;37.29;101581.09;5082386;27;45444;-49
2021/08/14 10:55:42;;;;;;;;;8.25;7.00;;;;;32.78;37.63;101587.25;5082224;27;46371;-53
2021/08/14 10:58:30;;;;;;;;;8.25;7.00;;;;;33.41;37.00;101588.44;5079043;28;45228;-48
2021/08/14 11:01:04;;;;;;;;;7.00;5.75;;;;;34.12;36.94;101581.34;5063964;28;45312;-48
2021/08/14 11:03:39;;;;;;;;;8.25;7.00;;;;;34.78;36.90;101583.75;5081602;28;45207;-47
2021/08/14 11:06:26;;;;;;;;;5.25;5.25;;;;;35.46;36.72;101582.09;5082429;27;45283;-49
2021/08/14 11:09:17;;;;;;;;;5.75;5.75;;;;;36.13;36.56;101583.94;5083627;27;45399;-46
2021/08/14 11:11:55;;;;;;;;;6.00;6.00;;;;;36.73;36.31;101584.56;5082424;27;45446;-46
2021/08/14 11:14:37;;;;;;;;;6.25;5.50;;;;;37.35;35.94;101577.56;5115211;27;45904;-47
2021/08/14 11:17:03;;;;;;;;;6.25;5.75;;;;;37.86;35.31;101588.06;5082237;27;45226;-47
2021/08/14 11:19:41;;;;;;;;;8.75;7.00;;;;;38.39;35.56;101573.59;5081921;28;45189;-50
2021/08/14 11:22:32;;;;;;;;;5.25;5.25;;;;;38.92;35.25;101577.19;5082808;27;45348;-49